Madison-on-the-Lake, Ohio
Current Conditions -  °F | °C
As of 8:11 PM on Thursday 18 Dec 2014 (Local Time) from KHZY Reporting Station
Overcast Overcast  
Wind Chill: 26°   Ceiling: 1600
Heat Index: 31°   Visibility: 10mi
Dew Point: 27°   Wind: 5mph
Humidity: 85%   Direction: 270°W
Pressure: 30.14"   Gusts: NA
Location:  41.7879°N, 81.0546°W
Report Text: KHZY 190111Z AUTO 27004KT 10SM OVC016 M01/M03 A3014 RMK AO2 UPB0059E03 P0000 T10061028
Loading
Personal Weather Stations






























Interactive Weather Map New forecast layout! Learn more

10-Day Weather Forecast

Advertisements
Track Severe Weather on mobile